createdAt,value
2023-01-12T00:01:43.070Z,4.50
2023-01-12T00:04:12.257Z,4.30
2023-01-12T00:06:39.253Z,4.20
2023-01-12T00:09:06.888Z,4.00
2023-01-12T00:11:35.008Z,4.30
2023-01-12T00:14:02.094Z,6.00
2023-01-12T00:16:35.035Z,3.80
2023-01-12T00:19:23.191Z,4.00
2023-01-12T00:22:01.735Z,4.50
2023-01-12T00:24:33.939Z,4.00
2023-01-12T00:29:28.386Z,3.50
2023-01-12T00:31:56.224Z,3.20
2023-01-12T00:34:23.244Z,3.50
2023-01-12T00:36:50.111Z,4.20
2023-01-12T00:39:16.979Z,3.20
2023-01-12T00:42:03.520Z,2.70
2023-01-12T00:44:48.874Z,3.20
2023-01-12T00:47:15.801Z,3.50
2023-01-12T00:49:43.044Z,2.80
2023-01-12T00:52:18.137Z,3.30
2023-01-12T00:54:52.434Z,3.10
2023-01-12T00:57:19.190Z,3.80
2023-01-12T00:59:47.150Z,3.10
2023-01-12T08:06:11.434Z,5.40
2023-01-12T08:08:38.589Z,5.70
2023-01-12T08:11:07.861Z,5.10
2023-01-12T08:13:35.037Z,6.70
2023-01-12T08:16:06.425Z,6.10
2023-01-12T08:18:56.328Z,4.70
2023-01-12T08:21:24.850Z,5.90
2023-01-12T08:23:54.352Z,4.80
2023-01-12T08:26:24.500Z,5.90
2023-01-12T08:28:57.866Z,5.30
2023-01-12T08:31:25.108Z,6.00
2023-01-12T08:33:53.228Z,7.10
2023-01-12T08:36:20.240Z,5.70
2023-01-12T08:38:47.588Z,5.60
2023-01-12T08:41:33.585Z,5.50
2023-01-12T08:44:02.076Z,4.60
2023-01-12T08:46:49.102Z,4.60
2023-01-12T08:49:18.076Z,5.20
2023-01-12T08:51:45.361Z,6.20
2023-01-12T08:54:14.250Z,5.30
2023-01-12T08:56:41.460Z,4.70
2023-01-12T08:59:08.606Z,6.10
2023-01-12T09:01:36.608Z,6.00
2023-01-12T09:04:04.955Z,5.90
2023-01-12T09:06:36.310Z,5.40
2023-01-12T09:11:32.477Z,5.40
2023-01-12T09:13:59.494Z,6.60
2023-01-12T09:16:28.360Z,8.40
2023-01-12T09:18:56.262Z,7.70
2023-01-12T09:21:24.932Z,6.70
2023-01-12T09:23:52.300Z,6.90
2023-01-12T09:26:31.112Z,6.40
2023-01-12T09:28:59.593Z,4.80
2023-01-12T09:31:27.738Z,5.30
2023-01-12T09:33:55.537Z,5.40
2023-01-12T09:36:30.368Z,5.20
2023-01-12T09:38:57.818Z,4.90
2023-01-12T09:41:45.853Z,3.90
2023-01-12T09:44:51.011Z,5.30
2023-01-12T09:47:20.397Z,5.20
2023-01-12T09:50:10.644Z,4.60
2023-01-12T09:52:47.887Z,4.60
2023-01-12T09:55:19.617Z,4.50
2023-01-12T09:58:05.821Z,4.30
2023-01-12T10:00:34.817Z,5.50
2023-01-12T10:03:06.997Z,5.90
2023-01-12T10:05:53.899Z,6.30
2023-01-12T10:08:33.352Z,4.30
2023-01-12T10:11:28.147Z,3.60
2023-01-12T10:14:01.218Z,4.60
2023-01-12T10:17:00.835Z,3.70
2023-01-12T10:19:38.843Z,3.80
2023-01-12T10:22:39.163Z,4.90
2023-01-12T10:25:31.134Z,4.90
2023-01-12T10:27:59.114Z,6.10
2023-01-12T10:30:36.580Z,5.70
2023-01-12T16:42:47.414Z,7.30
2023-01-12T16:45:14.766Z,7.60
2023-01-12T16:47:41.920Z,7.90
2023-01-12T16:50:09.385Z,7.30
2023-01-12T16:52:36.726Z,6.10
2023-01-12T16:55:07.394Z,6.30
2023-01-12T16:57:34.570Z,5.80
2023-01-12T17:00:01.829Z,6.00
2023-01-12T17:02:31.771Z,5.90
2023-01-12T17:04:59.335Z,5.40
2023-01-12T17:07:26.951Z,6.70
2023-01-12T17:09:54.055Z,8.50
2023-01-12T17:12:21.602Z,7.90
2023-01-12T17:14:48.956Z,7.10
2023-01-12T17:17:16.305Z,5.70
2023-01-12T17:19:44.408Z,5.10
2023-01-12T17:22:11.752Z,5.20
2023-01-12T17:24:39.910Z,5.10
2023-01-12T17:27:07.879Z,4.90
2023-01-12T17:29:35.053Z,4.90
2023-01-12T17:32:03.529Z,5.00
2023-01-12T17:34:31.906Z,4.40
2023-01-12T17:37:02.515Z,4.70
2023-01-12T17:39:30.278Z,4.80
2023-01-12T17:42:16.273Z,4.90
2023-01-12T17:44:43.522Z,5.10
2023-01-12T17:47:11.284Z,5.70
2023-01-12T17:49:38.331Z,5.20
2023-01-12T17:52:05.500Z,5.60
2023-01-12T17:54:33.620Z,5.00
2023-01-12T17:57:00.921Z,6.00
2023-01-12T17:59:28.277Z,4.80
2023-01-12T18:01:56.004Z,6.00
2023-01-12T18:04:23.067Z,6.50
2023-01-12T18:06:50.116Z,6.20
2023-01-12T18:09:17.367Z,7.40
2023-01-12T18:11:44.520Z,7.90
2023-01-12T18:14:11.872Z,6.90
2023-01-12T18:16:39.427Z,5.80
2023-01-12T18:19:08.142Z,7.20
2023-01-12T18:21:35.672Z,8.80
2023-01-12T18:24:02.843Z,7.30
2023-01-12T18:26:30.885Z,6.30
2023-01-12T18:28:58.352Z,5.80
2023-01-12T18:31:28.169Z,6.20
2023-01-12T18:34:03.736Z,5.80
2023-01-12T18:36:38.582Z,6.50
2023-01-12T18:39:06.970Z,6.20
2023-01-12T18:41:56.717Z,6.50
2023-01-12T18:44:24.263Z,8.20
2023-01-12T18:47:09.736Z,8.30
2023-01-12T18:49:39.247Z,6.80
2023-01-12T18:52:25.337Z,5.80
2023-01-12T18:54:53.484Z,6.30
2023-01-12T18:57:23.211Z,5.10
2023-01-12T18:59:51.795Z,5.80
2023-01-12T19:02:19.094Z,5.10
2023-01-12T19:04:49.270Z,6.10
2023-01-12T19:07:43.555Z,5.80
2023-01-12T19:10:10.701Z,4.40
2023-01-12T19:12:37.852Z,4.90
2023-01-12T19:15:24.560Z,5.10
2023-01-12T19:17:52.115Z,5.40
2023-01-12T19:20:20.613Z,4.90
2023-01-12T19:23:06.494Z,5.00
2023-01-12T19:26:12.222Z,6.80
2023-01-12T19:28:40.168Z,5.30
2023-01-12T19:31:10.147Z,5.00
2023-01-12T19:33:37.992Z,4.40
2023-01-12T19:36:07.289Z,5.30
2023-01-12T19:38:35.697Z,4.30
2023-01-12T19:41:10.402Z,5.20
2023-01-12T19:43:40.638Z,5.40
2023-01-12T19:46:07.893Z,4.30
2023-01-12T19:48:35.129Z,6.10
2023-01-12T19:51:10.316Z,4.30
2023-01-12T19:53:39.862Z,4.60
2023-01-12T19:56:10.697Z,4.40
2023-01-12T20:01:05.274Z,5.80
2023-01-12T20:03:32.880Z,7.00
2023-01-12T20:06:04.720Z,6.30
2023-01-12T20:08:32.485Z,5.90
2023-01-12T20:11:01.477Z,5.10
2023-01-12T20:13:30.064Z,3.70
2023-01-12T20:15:58.401Z,4.30
2023-01-12T20:18:25.908Z,4.60
2023-01-12T20:20:58.164Z,4.30
2023-01-12T20:23:25.211Z,4.90
2023-01-12T20:25:52.363Z,4.10
2023-01-12T20:28:20.262Z,4.80
2023-01-12T20:30:47.366Z,4.00
2023-01-12T20:33:14.319Z,4.90
2023-01-12T20:35:45.871Z,4.00
2023-01-12T20:38:15.275Z,5.00
2023-01-12T20:40:45.718Z,5.20
2023-01-12T20:43:12.983Z,5.80
2023-01-12T20:45:41.237Z,4.80
2023-01-12T20:48:08.688Z,4.70
2023-01-12T20:50:35.731Z,4.30
2023-01-12T20:53:03.805Z,5.10
2023-01-12T20:55:31.257Z,4.60
2023-01-12T20:57:58.306Z,3.80
2023-01-12T21:00:26.802Z,4.40
2023-01-12T21:02:54.041Z,4.10
2023-01-12T21:05:21.294Z,4.40
2023-01-12T21:07:51.981Z,6.00
2023-01-12T21:10:21.333Z,4.50
2023-01-12T21:12:48.572Z,4.20
2023-01-12T21:15:17.667Z,5.60
2023-01-12T21:17:47.069Z,3.90
2023-01-12T21:20:14.535Z,4.30
2023-01-12T21:22:41.776Z,4.40
2023-01-12T21:25:10.258Z,4.40
2023-01-12T21:27:37.509Z,4.70
2023-01-12T21:30:05.266Z,4.30
2023-01-12T21:32:32.543Z,4.60
2023-01-12T21:34:59.783Z,5.10
2023-01-12T21:37:27.025Z,4.90
2023-01-12T21:39:54.184Z,5.60
2023-01-12T21:42:43.346Z,5.20
2023-01-12T21:45:11.218Z,5.70
2023-01-12T21:47:38.152Z,5.50
2023-01-12T21:50:06.735Z,5.10
2023-01-12T21:52:34.190Z,5.30
2023-01-12T21:55:01.249Z,5.10
2023-01-12T21:57:28.607Z,5.70
2023-01-12T21:59:55.778Z,7.00
2023-01-12T22:02:23.303Z,6.10
2023-01-12T22:04:50.345Z,5.50
2023-01-12T22:07:17.806Z,6.00
2023-01-12T22:09:45.273Z,5.50
2023-01-12T22:12:12.207Z,6.10
2023-01-12T22:14:43.257Z,6.20
2023-01-12T22:17:10.398Z,6.40
2023-01-12T22:19:39.413Z,7.00
2023-01-12T22:22:07.049Z,6.90
2023-01-12T22:24:34.204Z,6.90
2023-01-12T22:27:02.984Z,6.60
2023-01-12T22:29:30.849Z,6.60
2023-01-12T22:31:58.129Z,7.10
2023-01-12T22:34:25.867Z,6.80
2023-01-12T22:36:52.708Z,6.30
2023-01-12T22:39:19.755Z,6.60
2023-01-12T22:41:50.077Z,8.00
2023-01-12T22:44:17.435Z,8.10
2023-01-12T22:46:44.785Z,7.40
2023-01-12T22:49:11.842Z,7.60
2023-01-12T22:51:38.986Z,7.10
2023-01-12T22:54:06.233Z,7.30
2023-01-12T22:56:33.279Z,7.60
2023-01-12T22:59:00.770Z,7.60
2023-01-12T23:01:28.016Z,8.20
2023-01-12T23:03:55.680Z,8.80
2023-01-12T23:06:23.205Z,7.20
2023-01-12T23:08:50.567Z,7.90
2023-01-12T23:11:19.740Z,7.70
2023-01-12T23:13:46.700Z,7.00
2023-01-12T23:16:15.150Z,7.40
2023-01-12T23:18:43.562Z,7.60
2023-01-12T23:21:25.968Z,7.80
2023-01-12T23:23:57.415Z,7.60
2023-01-12T23:28:55.420Z,7.60
2023-01-12T23:31:24.043Z,7.90
2023-01-12T23:33:51.769Z,7.50
2023-01-12T23:36:20.759Z,8.10
2023-01-12T23:38:51.276Z,7.20
2023-01-12T23:41:20.166Z,8.10
2023-01-12T23:43:48.024Z,8.30
2023-01-12T23:46:21.578Z,7.80
2023-01-12T23:48:53.796Z,8.40
2023-01-12T23:51:21.249Z,8.30
2023-01-12T23:53:50.860Z,7.30
2023-01-12T23:56:18.720Z,7.50
2023-01-12T23:58:47.305Z,8.00
